This is the latest recevied weather packets stored in our database for station/object KC8UZG. If no packets are shown the sender has not sent any weather packets the latest 1 day(s).
| Time | Temp. | Humidity | Pressure | Rain* | Wind** | Luminosity | Snow |
|---|---|---|---|---|---|---|---|
| 1836274695 | 19.44° C | 77% | 1017.7 hPa | 0 mm | 0 m/s | 0 W/m² | - |
| 1836274155 | 20° C | 74% | 1017.9 hPa | 0 mm | 0 m/s | 0 W/m² | - |
| 1778058922 | 5.56° C | 99% | 1007.3 hPa | 0 mm | 0 m/s | 0 W/m² | - |
| 1778058328 | 5.56° C | 99% | - | 0 mm | 0.89 m/s, 323° | 0 W/m² | - |
| 1778057734 | 6.11° C | 99% | - | 0 mm | 0.89 m/s, 313° | 0 W/m² | - |
| 1778057140 | 6.11° C | 99% | - | 0.25 mm | 1.34 m/s, 326° | 0 W/m² | - |
| 1778056518 | 6.11° C | 99% | - | 0.25 mm | 0.45 m/s, 305° | 0 W/m² | - |
| 1778055926 | 6.11° C | 99% | - | 0.51 mm | 0 m/s | 0 W/m² | - |
| 1778055331 | 6.11° C | 99% | - | 1.02 mm | 0.89 m/s, 326° | 0 W/m² | - |
| 1778054737 | 6.11° C | 99% | - | 1.27 mm | 0.89 m/s, 322° | 0 W/m² | - |
| 1778054116 | 6.11° C | 99% | - | 1.27 mm | 0.45 m/s, 329° | 0 W/m² | - |
| 1778053521 | 6.11° C | 99% | 1007.6 hPa | 1.02 mm | 0.45 m/s, 315° | 0 W/m² | - |
| 1778052928 | 6.11° C | 99% | 1007.6 hPa | 1.02 mm | 0.89 m/s, 316° | 0 W/m² | - |
| 1778052335 | 6.11° C | 99% | 1007.6 hPa | 1.27 mm | 0.89 m/s, 320° | 0 W/m² | - |
| 1778051740 | 6.11° C | 99% | - | 0.76 mm | 0.45 m/s, 316° | 0 W/m² | - |
| 1778051119 | 6.67° C | 99% | - | 0.76 mm | 0.45 m/s, 293° | 0 W/m² | - |
| 1778050524 | 6.67° C | 99% | - | 1.27 mm | 0.45 m/s, 332° | 0 W/m² | - |
| 1778049930 | 6.67° C | 99% | 1007.3 hPa | 1.52 mm | 0.89 m/s, 314° | 0 W/m² | - |
| 1778049337 | 6.67° C | 99% | 1007.5 hPa | 2.03 mm | 0.45 m/s, 358° | 0 W/m² | - |
| 1778048715 | 6.67° C | 99% | 1007.6 hPa | 2.03 mm | 0.89 m/s, 332° | 0 W/m² | - |
| 1778048121 | 7.22° C | 99% | 1007.6 hPa | 2.79 mm | 1.34 m/s, 316° | 0 W/m² | - |
| 1778047528 | 7.22° C | 99% | 1007.3 hPa | 3.81 mm | 0.89 m/s, 318° | 0 W/m² | - |
| 1778046933 | 7.78° C | 99% | 1007.2 hPa | 4.57 mm | 0.45 m/s, 326° | 0 W/m² | - |
| 1778046339 | 7.78° C | 99% | 1007.3 hPa | 5.59 mm | 0 m/s | 0 W/m² | - |
| 1778045718 | 7.78° C | 99% | 1007.3 hPa | 5.59 mm | 0.45 m/s, 313° | 0 W/m² | - |
* Rain latest hour (hover to see other rain measurements)
** Current wind speed in m/s (hover to see current wind gust speed)